sensor_id;sensor_type;location;lat;lon;timestamp;temperature;humidity
39665;DHT22;26679;50.872;4.332;2023-03-25T00:01:06;9.70;99.90
39665;DHT22;26679;50.872;4.332;2023-03-25T00:03:38;9.80;99.90
39665;DHT22;26679;50.872;4.332;2023-03-25T00:06:06;9.80;99.90
39665;DHT22;26679;50.872;4.332;2023-03-25T00:08:32;9.80;99.90
39665;DHT22;26679;50.872;4.332;2023-03-25T00:10:58;9.80;99.90
39665;DHT22;26679;50.872;4.332;2023-03-25T00:13:24;9.90;99.90
39665;DHT22;26679;50.872;4.332;2023-03-25T00:18:22;9.90;99.90
39665;DHT22;26679;50.872;4.332;2023-03-25T00:20:48;10.00;99.90
39665;DHT22;26679;50.872;4.332;2023-03-25T00:23:15;10.00;99.90
39665;DHT22;26679;50.872;4.332;2023-03-25T00:25:41;10.00;99.90
39665;DHT22;26679;50.872;4.332;2023-03-25T00:28:09;9.90;99.90
39665;DHT22;26679;50.872;4.332;2023-03-25T00:30:36;9.90;99.90
39665;DHT22;26679;50.872;4.332;2023-03-25T00:33:02;10.00;99.90
39665;DHT22;26679;50.872;4.332;2023-03-25T00:38:01;9.90;99.90
39665;DHT22;26679;50.872;4.332;2023-03-25T00:40:28;9.80;99.90
39665;DHT22;26679;50.872;4.332;2023-03-25T00:42:54;10.00;99.90
39665;DHT22;26679;50.872;4.332;2023-03-25T00:45:20;10.00;99.90
39665;DHT22;26679;50.872;4.332;2023-03-25T00:47:46;10.00;99.90
39665;DHT22;26679;50.872;4.332;2023-03-25T00:50:12;9.90;99.90
39665;DHT22;26679;50.872;4.332;2023-03-25T00:52:38;10.00;99.90
39665;DHT22;26679;50.872;4.332;2023-03-25T00:55:04;10.10;99.90
39665;DHT22;26679;50.872;4.332;2023-03-25T00:57:30;10.10;99.90
39665;DHT22;26679;50.872;4.332;2023-03-25T00:59:56;10.10;99.90
39665;DHT22;26679;50.872;4.332;2023-03-25T01:04:52;9.80;99.90
39665;DHT22;26679;50.872;4.332;2023-03-25T01:07:19;9.60;99.90
39665;DHT22;26679;50.872;4.332;2023-03-25T01:09:45;9.50;99.90
39665;DHT22;26679;50.872;4.332;2023-03-25T01:12:11;9.40;99.90
39665;DHT22;26679;50.872;4.332;2023-03-25T01:14:37;9.40;99.90
39665;DHT22;26679;50.872;4.332;2023-03-25T01:17:02;9.40;99.90
39665;DHT22;26679;50.872;4.332;2023-03-25T01:19:28;9.40;99.90
39665;DHT22;26679;50.872;4.332;2023-03-25T01:21:53;9.40;99.90
39665;DHT22;26679;50.872;4.332;2023-03-25T01:24:19;9.40;99.90
39665;DHT22;26679;50.872;4.332;2023-03-25T01:26:45;9.40;99.90
39665;DHT22;26679;50.872;4.332;2023-03-25T01:29:11;9.50;99.90
39665;DHT22;26679;50.872;4.332;2023-03-25T01:31:37;8.00;99.90
39665;DHT22;26679;50.872;4.332;2023-03-25T01:34:03;9.60;99.90
39665;DHT22;26679;50.872;4.332;2023-03-25T01:36:29;10.40;99.90
39665;DHT22;26679;50.872;4.332;2023-03-25T01:38:54;9.60;99.90
39665;DHT22;26679;50.872;4.332;2023-03-25T01:41:21;9.60;99.90
39665;DHT22;26679;50.872;4.332;2023-03-25T01:46:23;9.40;99.90
39665;DHT22;26679;50.872;4.332;2023-03-25T01:48:48;9.40;99.90
39665;DHT22;26679;50.872;4.332;2023-03-25T01:51:17;9.30;99.90
39665;DHT22;26679;50.872;4.332;2023-03-25T01:53:44;9.40;99.90
39665;DHT22;26679;50.872;4.332;2023-03-25T01:56:10;9.30;99.90
39665;DHT22;26679;50.872;4.332;2023-03-25T01:58:37;9.40;99.90
39665;DHT22;26679;50.872;4.332;2023-03-25T02:01:04;9.40;99.90
39665;DHT22;26679;50.872;4.332;2023-03-25T02:03:31;9.40;99.90
39665;DHT22;26679;50.872;4.332;2023-03-25T02:08:34;9.40;99.90
39665;DHT22;26679;50.872;4.332;2023-03-25T02:11:03;9.40;99.90
39665;DHT22;26679;50.872;4.332;2023-03-25T02:13:29;9.60;99.90
39665;DHT22;26679;50.872;4.332;2023-03-25T02:18:36;9.60;99.90
39665;DHT22;26679;50.872;4.332;2023-03-25T02:23:40;9.70;99.90
39665;DHT22;26679;50.872;4.332;2023-03-25T02:39:10;9.70;99.90
39665;DHT22;26679;50.872;4.332;2023-03-25T02:41:39;9.90;99.90
39665;DHT22;26679;50.872;4.332;2023-03-25T02:44:11;9.90;99.90
39665;DHT22;26679;50.872;4.332;2023-03-25T02:46:40;9.80;99.90
39665;DHT22;26679;50.872;4.332;2023-03-25T02:49:08;9.70;99.90
39665;DHT22;26679;50.872;4.332;2023-03-25T02:51:37;9.60;99.90
39665;DHT22;26679;50.872;4.332;2023-03-25T02:54:09;9.50;99.90
39665;DHT22;26679;50.872;4.332;2023-03-25T02:56:35;9.40;99.90
39665;DHT22;26679;50.872;4.332;2023-03-25T02:59:02;9.30;99.90
39665;DHT22;26679;50.872;4.332;2023-03-25T03:01:29;9.20;99.90
39665;DHT22;26679;50.872;4.332;2023-03-25T03:03:55;9.10;99.90
39665;DHT22;26679;50.872;4.332;2023-03-25T03:06:21;9.00;99.90
39665;DHT22;26679;50.872;4.332;2023-03-25T03:11:16;9.00;99.90
39665;DHT22;26679;50.872;4.332;2023-03-25T03:16:17;9.10;99.90
39665;DHT22;26679;50.872;4.332;2023-03-25T03:29:11;8.80;99.90
39665;DHT22;26679;50.872;4.332;2023-03-25T03:31:40;8.80;99.90
39665;DHT22;26679;50.872;4.332;2023-03-25T03:34:16;8.80;99.90
39665;DHT22;26679;50.872;4.332;2023-03-25T03:36:45;8.80;99.90
39665;DHT22;26679;50.872;4.332;2023-03-25T03:39:17;8.80;99.90
39665;DHT22;26679;50.872;4.332;2023-03-25T03:41:45;8.70;99.90
39665;DHT22;26679;50.872;4.332;2023-03-25T03:44:13;8.70;99.90
39665;DHT22;26679;50.872;4.332;2023-03-25T03:46:42;8.80;99.90
39665;DHT22;26679;50.872;4.332;2023-03-25T03:49:12;8.70;99.90
39665;DHT22;26679;50.872;4.332;2023-03-25T03:51:45;8.60;99.90
39665;DHT22;26679;50.872;4.332;2023-03-25T03:54:15;8.60;99.90
39665;DHT22;26679;50.872;4.332;2023-03-25T03:56:46;8.60;99.90
39665;DHT22;26679;50.872;4.332;2023-03-25T04:01:54;8.50;99.90
39665;DHT22;26679;50.872;4.332;2023-03-25T04:04:22;8.50;99.90
39665;DHT22;26679;50.872;4.332;2023-03-25T04:09:22;8.50;99.90
39665;DHT22;26679;50.872;4.332;2023-03-25T04:14:23;8.40;99.90
39665;DHT22;26679;50.872;4.332;2023-03-25T04:16:48;8.50;99.90
39665;DHT22;26679;50.872;4.332;2023-03-25T04:19:14;8.40;99.90
39665;DHT22;26679;50.872;4.332;2023-03-25T04:21:43;8.30;99.90
39665;DHT22;26679;50.872;4.332;2023-03-25T04:24:09;8.40;99.90
39665;DHT22;26679;50.872;4.332;2023-03-25T04:26:35;8.40;99.90
39665;DHT22;26679;50.872;4.332;2023-03-25T04:29:02;8.40;99.90
39665;DHT22;26679;50.872;4.332;2023-03-25T04:31:28;8.40;99.90
39665;DHT22;26679;50.872;4.332;2023-03-25T04:33:56;8.40;99.90
39665;DHT22;26679;50.872;4.332;2023-03-25T04:36:22;8.50;99.90
39665;DHT22;26679;50.872;4.332;2023-03-25T04:38:47;8.40;99.90
39665;DHT22;26679;50.872;4.332;2023-03-25T04:41:13;8.50;99.90
39665;DHT22;26679;50.872;4.332;2023-03-25T04:43:39;8.40;99.90
39665;DHT22;26679;50.872;4.332;2023-03-25T04:46:05;8.40;99.90
39665;DHT22;26679;50.872;4.332;2023-03-25T04:48:32;8.30;99.90
39665;DHT22;26679;50.872;4.332;2023-03-25T04:51:00;9.00;99.90
39665;DHT22;26679;50.872;4.332;2023-03-25T04:53:28;8.50;99.90
39665;DHT22;26679;50.872;4.332;2023-03-25T04:55:54;8.00;99.90
39665;DHT22;26679;50.872;4.332;2023-03-25T04:58:20;8.60;99.90
39665;DHT22;26679;50.872;4.332;2023-03-25T05:00:47;8.70;99.90
39665;DHT22;26679;50.872;4.332;2023-03-25T05:03:16;8.80;99.90
39665;DHT22;26679;50.872;4.332;2023-03-25T05:05:42;8.90;99.90
39665;DHT22;26679;50.872;4.332;2023-03-25T05:08:07;8.80;99.90
39665;DHT22;26679;50.872;4.332;2023-03-25T05:10:34;8.80;99.90
39665;DHT22;26679;50.872;4.332;2023-03-25T05:13:01;9.50;99.90
39665;DHT22;26679;50.872;4.332;2023-03-25T05:15:27;8.90;99.90
39665;DHT22;26679;50.872;4.332;2023-03-25T05:17:54;8.90;99.90
39665;DHT22;26679;50.872;4.332;2023-03-25T05:20:20;8.90;99.90
39665;DHT22;26679;50.872;4.332;2023-03-25T05:22:46;9.00;99.90
39665;DHT22;26679;50.872;4.332;2023-03-25T05:25:12;9.00;99.90
39665;DHT22;26679;50.872;4.332;2023-03-25T05:27:37;9.10;99.90
39665;DHT22;26679;50.872;4.332;2023-03-25T05:30:04;9.10;99.90
39665;DHT22;26679;50.872;4.332;2023-03-25T05:32:30;9.00;99.90
39665;DHT22;26679;50.872;4.332;2023-03-25T05:35:03;9.10;99.90
39665;DHT22;26679;50.872;4.332;2023-03-25T05:37:29;9.00;99.90
39665;DHT22;26679;50.872;4.332;2023-03-25T05:39:54;9.20;99.90
39665;DHT22;26679;50.872;4.332;2023-03-25T05:42:20;9.10;99.90
39665;DHT22;26679;50.872;4.332;2023-03-25T05:44:50;9.10;99.90
39665;DHT22;26679;50.872;4.332;2023-03-25T05:47:25;9.20;99.90
39665;DHT22;26679;50.872;4.332;2023-03-25T05:49:53;9.30;99.90
39665;DHT22;26679;50.872;4.332;2023-03-25T05:52:18;9.40;99.90
39665;DHT22;26679;50.872;4.332;2023-03-25T05:54:45;9.80;99.90
39665;DHT22;26679;50.872;4.332;2023-03-25T05:57:11;9.40;99.90
39665;DHT22;26679;50.872;4.332;2023-03-25T05:59:37;9.40;99.90
39665;DHT22;26679;50.872;4.332;2023-03-25T06:04:39;9.20;99.90
39665;DHT22;26679;50.872;4.332;2023-03-25T06:07:08;9.20;99.90
39665;DHT22;26679;50.872;4.332;2023-03-25T06:09:39;9.20;99.90
39665;DHT22;26679;50.872;4.332;2023-03-25T06:12:21;9.30;99.90
39665;DHT22;26679;50.872;4.332;2023-03-25T06:14:48;9.30;99.90
39665;DHT22;26679;50.872;4.332;2023-03-25T06:17:18;9.30;99.90
39665;DHT22;26679;50.872;4.332;2023-03-25T06:19:45;9.10;99.90
39665;DHT22;26679;50.872;4.332;2023-03-25T06:22:11;9.10;99.90
39665;DHT22;26679;50.872;4.332;2023-03-25T06:24:40;9.20;99.90
39665;DHT22;26679;50.872;4.332;2023-03-25T06:27:15;9.30;99.90
39665;DHT22;26679;50.872;4.332;2023-03-25T06:29:42;9.40;99.90
39665;DHT22;26679;50.872;4.332;2023-03-25T06:32:08;9.40;99.90
39665;DHT22;26679;50.872;4.332;2023-03-25T06:34:34;9.40;99.90
39665;DHT22;26679;50.872;4.332;2023-03-25T06:36:59;9.00;99.90
39665;DHT22;26679;50.872;4.332;2023-03-25T06:39:26;8.90;99.90
39665;DHT22;26679;50.872;4.332;2023-03-25T06:41:52;8.90;99.90
39665;DHT22;26679;50.872;4.332;2023-03-25T06:44:18;8.90;99.90
39665;DHT22;26679;50.872;4.332;2023-03-25T06:46:44;9.00;99.90
39665;DHT22;26679;50.872;4.332;2023-03-25T06:49:09;9.00;99.90
39665;DHT22;26679;50.872;4.332;2023-03-25T06:51:35;9.00;99.90
39665;DHT22;26679;50.872;4.332;2023-03-25T06:54:01;9.00;99.90
39665;DHT22;26679;50.872;4.332;2023-03-25T06:56:26;9.10;99.90
39665;DHT22;26679;50.872;4.332;2023-03-25T06:58:52;9.20;99.90
39665;DHT22;26679;50.872;4.332;2023-03-25T07:01:17;9.30;99.90
39665;DHT22;26679;50.872;4.332;2023-03-25T07:03:43;9.50;99.90
39665;DHT22;26679;50.872;4.332;2023-03-25T07:06:09;9.60;99.90
39665;DHT22;26679;50.872;4.332;2023-03-25T07:08:40;9.60;99.90
39665;DHT22;26679;50.872;4.332;2023-03-25T07:11:06;8.70;99.90
39665;DHT22;26679;50.872;4.332;2023-03-25T07:13:35;9.80;99.90
39665;DHT22;26679;50.872;4.332;2023-03-25T07:16:01;9.90;99.90
39665;DHT22;26679;50.872;4.332;2023-03-25T07:18:27;9.80;99.90
39665;DHT22;26679;50.872;4.332;2023-03-25T07:20:53;10.00;99.90
39665;DHT22;26679;50.872;4.332;2023-03-25T07:23:19;10.00;99.90
39665;DHT22;26679;50.872;4.332;2023-03-25T07:25:45;10.10;99.90
39665;DHT22;26679;50.872;4.332;2023-03-25T07:48:47;10.20;99.90
39665;DHT22;26679;50.872;4.332;2023-03-25T07:51:13;10.40;99.90
39665;DHT22;26679;50.872;4.332;2023-03-25T07:53:38;10.30;99.90
39665;DHT22;26679;50.872;4.332;2023-03-25T07:56:06;10.30;99.90
39665;DHT22;26679;50.872;4.332;2023-03-25T07:58:32;10.30;99.90
39665;DHT22;26679;50.872;4.332;2023-03-25T08:00:58;10.40;99.90
39665;DHT22;26679;50.872;4.332;2023-03-25T08:03:23;10.40;99.90
39665;DHT22;26679;50.872;4.332;2023-03-25T08:05:50;10.40;99.90
39665;DHT22;26679;50.872;4.332;2023-03-25T08:08:15;10.40;99.90
39665;DHT22;26679;50.872;4.332;2023-03-25T08:10:44;10.40;99.90
39665;DHT22;26679;50.872;4.332;2023-03-25T08:13:13;10.00;99.90
39665;DHT22;26679;50.872;4.332;2023-03-25T08:15:39;9.90;99.90
39665;DHT22;26679;50.872;4.332;2023-03-25T08:18:05;9.80;99.90
39665;DHT22;26679;50.872;4.332;2023-03-25T08:20:34;9.90;99.90
39665;DHT22;26679;50.872;4.332;2023-03-25T08:23:00;10.60;99.90
39665;DHT22;26679;50.872;4.332;2023-03-25T08:25:27;10.10;99.90
39665;DHT22;26679;50.872;4.332;2023-03-25T08:27:53;10.10;99.90
39665;DHT22;26679;50.872;4.332;2023-03-25T08:30:19;10.00;99.90
39665;DHT22;26679;50.872;4.332;2023-03-25T08:32:45;10.00;99.90
39665;DHT22;26679;50.872;4.332;2023-03-25T08:35:10;10.10;99.90
39665;DHT22;26679;50.872;4.332;2023-03-25T08:37:36;10.40;99.90
39665;DHT22;26679;50.872;4.332;2023-03-25T08:40:05;10.60;99.90
39665;DHT22;26679;50.872;4.332;2023-03-25T08:42:33;10.60;99.90
39665;DHT22;26679;50.872;4.332;2023-03-25T08:44:59;10.80;99.90
39665;DHT22;26679;50.872;4.332;2023-03-25T08:47:24;11.00;99.90
39665;DHT22;26679;50.872;4.332;2023-03-25T08:49:50;11.40;99.90
39665;DHT22;26679;50.872;4.332;2023-03-25T08:52:15;11.20;99.90
39665;DHT22;26679;50.872;4.332;2023-03-25T08:54:41;11.30;99.90
39665;DHT22;26679;50.872;4.332;2023-03-25T08:57:07;11.10;99.90
39665;DHT22;26679;50.872;4.332;2023-03-25T08:59:33;11.30;99.90
39665;DHT22;26679;50.872;4.332;2023-03-25T09:01:58;11.30;99.90
39665;DHT22;26679;50.872;4.332;2023-03-25T09:04:24;11.20;99.90
39665;DHT22;26679;50.872;4.332;2023-03-25T09:06:50;11.30;99.90
39665;DHT22;26679;50.872;4.332;2023-03-25T09:09:16;11.40;99.90
39665;DHT22;26679;50.872;4.332;2023-03-25T09:11:42;11.20;99.90
39665;DHT22;26679;50.872;4.332;2023-03-25T09:14:08;11.00;99.90
39665;DHT22;26679;50.872;4.332;2023-03-25T09:16:34;10.40;99.90
39665;DHT22;26679;50.872;4.332;2023-03-25T09:19:00;10.10;99.90
39665;DHT22;26679;50.872;4.332;2023-03-25T09:21:26;9.90;99.90
39665;DHT22;26679;50.872;4.332;2023-03-25T09:23:51;9.90;99.90
39665;DHT22;26679;50.872;4.332;2023-03-25T09:26:17;9.90;99.90
39665;DHT22;26679;50.872;4.332;2023-03-25T09:28:50;10.10;99.90
39665;DHT22;26679;50.872;4.332;2023-03-25T09:34:31;10.00;99.90
39665;DHT22;26679;50.872;4.332;2023-03-25T09:36:57;9.90;99.90
39665;DHT22;26679;50.872;4.332;2023-03-25T09:39:23;9.70;99.90
39665;DHT22;26679;50.872;4.332;2023-03-25T09:44:26;10.00;99.90
39665;DHT22;26679;50.872;4.332;2023-03-25T09:46:53;10.20;99.90
39665;DHT22;26679;50.872;4.332;2023-03-25T09:49:20;10.60;99.90
39665;DHT22;26679;50.872;4.332;2023-03-25T09:51:47;11.10;99.90
39665;DHT22;26679;50.872;4.332;2023-03-25T10:06:07;10.10;99.90
39665;DHT22;26679;50.872;4.332;2023-03-25T10:26:29;12.20;99.90
39665;DHT22;26679;50.872;4.332;2023-03-25T10:28:57;12.90;99.90
39665;DHT22;26679;50.872;4.332;2023-03-25T10:31:25;12.90;99.90
39665;DHT22;26679;50.872;4.332;2023-03-25T10:33:56;13.10;99.90
39665;DHT22;26679;50.872;4.332;2023-03-25T10:36:29;14.00;99.90
39665;DHT22;26679;50.872;4.332;2023-03-25T10:38:57;14.70;99.90
39665;DHT22;26679;50.872;4.332;2023-03-25T10:41:28;15.40;99.90
39665;DHT22;26679;50.872;4.332;2023-03-25T10:43:55;15.70;99.90
39665;DHT22;26679;50.872;4.332;2023-03-25T10:48:46;15.80;99.90
39665;DHT22;26679;50.872;4.332;2023-03-25T10:51:14;15.80;99.90
39665;DHT22;26679;50.872;4.332;2023-03-25T10:53:41;15.60;99.90
39665;DHT22;26679;50.872;4.332;2023-03-25T10:56:16;15.80;99.90
39665;DHT22;26679;50.872;4.332;2023-03-25T10:58:44;16.50;99.90
39665;DHT22;26679;50.872;4.332;2023-03-25T11:01:15;16.90;99.90
39665;DHT22;26679;50.872;4.332;2023-03-25T11:03:42;17.50;99.90
39665;DHT22;26679;50.872;4.332;2023-03-25T11:06:29;17.30;99.90
39665;DHT22;26679;50.872;4.332;2023-03-25T11:11:31;17.40;99.90
39665;DHT22;26679;50.872;4.332;2023-03-25T11:13:57;17.40;99.90
39665;DHT22;26679;50.872;4.332;2023-03-25T11:16:23;16.50;99.90
39665;DHT22;26679;50.872;4.332;2023-03-25T11:18:50;15.90;99.90
39665;DHT22;26679;50.872;4.332;2023-03-25T11:21:17;15.10;99.90
39665;DHT22;26679;50.872;4.332;2023-03-25T11:23:43;14.30;99.90
39665;DHT22;26679;50.872;4.332;2023-03-25T11:26:17;13.30;99.90
39665;DHT22;26679;50.872;4.332;2023-03-25T11:28:43;12.60;99.90
39665;DHT22;26679;50.872;4.332;2023-03-25T11:31:16;12.10;99.90
39665;DHT22;26679;50.872;4.332;2023-03-25T11:33:43;11.90;99.90
39665;DHT22;26679;50.872;4.332;2023-03-25T11:36:19;11.70;99.90
39665;DHT22;26679;50.872;4.332;2023-03-25T11:38:51;11.40;99.90
39665;DHT22;26679;50.872;4.332;2023-03-25T11:41:18;11.10;99.90
39665;DHT22;26679;50.872;4.332;2023-03-25T11:43:46;10.70;99.90
39665;DHT22;26679;50.872;4.332;2023-03-25T11:46:13;10.40;99.90
39665;DHT22;26679;50.872;4.332;2023-03-25T11:48:41;10.10;99.90
39665;DHT22;26679;50.872;4.332;2023-03-25T11:51:10;10.10;99.90
39665;DHT22;26679;50.872;4.332;2023-03-25T11:53:43;10.20;99.90
39665;DHT22;26679;50.872;4.332;2023-03-25T11:56:14;10.30;99.90
39665;DHT22;26679;50.872;4.332;2023-03-25T11:58:40;10.30;99.90
39665;DHT22;26679;50.872;4.332;2023-03-25T12:01:10;10.30;99.90
39665;DHT22;26679;50.872;4.332;2023-03-25T12:03:41;10.90;99.90
39665;DHT22;26679;50.872;4.332;2023-03-25T12:08:47;10.20;99.90
39665;DHT22;26679;50.872;4.332;2023-03-25T13:00:42;10.30;99.90
39665;DHT22;26679;50.872;4.332;2023-03-25T13:29:03;12.60;99.90
39665;DHT22;26679;50.872;4.332;2023-03-25T13:36:44;14.40;99.90
39665;DHT22;26679;50.872;4.332;2023-03-25T13:41:40;15.20;99.90
39665;DHT22;26679;50.872;4.332;2023-03-25T13:46:35;14.30;99.90
39665;DHT22;26679;50.872;4.332;2023-03-25T13:51:40;13.60;99.90
39665;DHT22;26679;50.872;4.332;2023-03-25T13:54:11;13.80;99.90
39665;DHT22;26679;50.872;4.332;2023-03-25T14:01:51;15.90;99.90
39665;DHT22;26679;50.872;4.332;2023-03-25T14:11:56;17.10;99.90
39665;DHT22;26679;50.872;4.332;2023-03-25T14:16:58;15.70;99.90
39665;DHT22;26679;50.872;4.332;2023-03-25T14:19:42;15.60;99.90
39665;DHT22;26679;50.872;4.332;2023-03-25T14:22:16;16.10;99.90
39665;DHT22;26679;50.872;4.332;2023-03-25T14:24:42;15.70;99.90
39665;DHT22;26679;50.872;4.332;2023-03-25T14:29:51;14.70;99.90
39665;DHT22;26679;50.872;4.332;2023-03-25T14:34:48;14.60;99.90
39665;DHT22;26679;50.872;4.332;2023-03-25T14:37:15;14.40;99.90
39665;DHT22;26679;50.872;4.332;2023-03-25T14:39:42;14.20;99.90
39665;DHT22;26679;50.872;4.332;2023-03-25T14:44:39;13.20;99.90
39665;DHT22;26679;50.872;4.332;2023-03-25T14:57:47;12.90;99.90
39665;DHT22;26679;50.872;4.332;2023-03-25T15:00:19;13.30;99.90
39665;DHT22;26679;50.872;4.332;2023-03-25T15:05:26;13.30;99.90
39665;DHT22;26679;50.872;4.332;2023-03-25T15:10:35;12.30;99.90
39665;DHT22;26679;50.872;4.332;2023-03-25T15:13:03;11.90;99.90
39665;DHT22;26679;50.872;4.332;2023-03-25T15:17:54;11.80;99.90
39665;DHT22;26679;50.872;4.332;2023-03-25T15:36:43;13.10;99.90
39665;DHT22;26679;50.872;4.332;2023-03-25T15:42:02;13.30;99.90
39665;DHT22;26679;50.872;4.332;2023-03-25T15:52:22;13.20;99.90
39665;DHT22;26679;50.872;4.332;2023-03-25T15:57:19;13.30;99.90
39665;DHT22;26679;50.872;4.332;2023-03-25T16:02:27;13.30;99.90
39665;DHT22;26679;50.872;4.332;2023-03-25T16:04:57;12.80;99.90
39665;DHT22;26679;50.872;4.332;2023-03-25T16:07:23;13.00;99.90
39665;DHT22;26679;50.872;4.332;2023-03-25T16:09:52;13.00;99.90
39665;DHT22;26679;50.872;4.332;2023-03-25T16:12:22;13.10;99.90
39665;DHT22;26679;50.872;4.332;2023-03-25T16:14:48;13.20;99.90
39665;DHT22;26679;50.872;4.332;2023-03-25T16:17:14;13.30;99.90
39665;DHT22;26679;50.872;4.332;2023-03-25T16:22:18;13.20;99.90
39665;DHT22;26679;50.872;4.332;2023-03-25T16:24:45;13.20;99.90
39665;DHT22;26679;50.872;4.332;2023-03-25T16:27:17;13.10;99.90
39665;DHT22;26679;50.872;4.332;2023-03-25T16:29:50;13.30;99.90
39665;DHT22;26679;50.872;4.332;2023-03-25T16:32:24;13.20;99.90
39665;DHT22;26679;50.872;4.332;2023-03-25T16:40:03;13.20;99.90
39665;DHT22;26679;50.872;4.332;2023-03-25T16:45:06;13.20;99.90
39665;DHT22;26679;50.872;4.332;2023-03-25T16:47:38;13.20;99.90
39665;DHT22;26679;50.872;4.332;2023-03-25T16:55:31;13.00;99.90
39665;DHT22;26679;50.872;4.332;2023-03-25T16:58:02;12.90;99.90
39665;DHT22;26679;50.872;4.332;2023-03-25T17:00:39;12.90;99.90
39665;DHT22;26679;50.872;4.332;2023-03-25T17:03:14;12.90;99.90
39665;DHT22;26679;50.872;4.332;2023-03-25T17:08:17;12.80;99.90
39665;DHT22;26679;50.872;4.332;2023-03-25T17:15:42;12.80;99.90
39665;DHT22;26679;50.872;4.332;2023-03-25T17:20:46;12.70;99.90
39665;DHT22;26679;50.872;4.332;2023-03-25T17:33:35;12.60;99.90
39665;DHT22;26679;50.872;4.332;2023-03-25T17:36:07;12.60;99.90
39665;DHT22;26679;50.872;4.332;2023-03-25T17:41:07;12.60;99.90
39665;DHT22;26679;50.872;4.332;2023-03-25T17:56:36;12.50;99.90
39665;DHT22;26679;50.872;4.332;2023-03-25T17:59:04;12.50;99.90
39665;DHT22;26679;50.872;4.332;2023-03-25T18:01:33;12.50;99.90
39665;DHT22;26679;50.872;4.332;2023-03-25T18:04:00;12.50;99.90
39665;DHT22;26679;50.872;4.332;2023-03-25T18:06:28;12.40;99.90
39665;DHT22;26679;50.872;4.332;2023-03-25T18:08:54;12.30;99.90
39665;DHT22;26679;50.872;4.332;2023-03-25T18:11:21;12.30;99.90
39665;DHT22;26679;50.872;4.332;2023-03-25T18:13:47;12.80;99.90
39665;DHT22;26679;50.872;4.332;2023-03-25T18:18:48;12.20;99.90
39665;DHT22;26679;50.872;4.332;2023-03-25T18:21:15;12.30;99.90
39665;DHT22;26679;50.872;4.332;2023-03-25T18:23:41;11.90;99.90
39665;DHT22;26679;50.872;4.332;2023-03-25T18:26:12;12.20;99.90
39665;DHT22;26679;50.872;4.332;2023-03-25T18:28:38;12.10;99.90
39665;DHT22;26679;50.872;4.332;2023-03-25T18:31:14;12.00;99.90
39665;DHT22;26679;50.872;4.332;2023-03-25T18:33:46;11.90;99.90
39665;DHT22;26679;50.872;4.332;2023-03-25T18:36:12;12.00;99.90
39665;DHT22;26679;50.872;4.332;2023-03-25T18:38:41;12.00;99.90
39665;DHT22;26679;50.872;4.332;2023-03-25T18:41:10;11.80;99.90
39665;DHT22;26679;50.872;4.332;2023-03-25T18:48:45;11.70;99.90
39665;DHT22;26679;50.872;4.332;2023-03-25T18:51:11;11.70;99.90
39665;DHT22;26679;50.872;4.332;2023-03-25T18:53:37;11.60;99.90
39665;DHT22;26679;50.872;4.332;2023-03-25T18:56:03;11.60;99.90
39665;DHT22;26679;50.872;4.332;2023-03-25T19:01:05;11.60;99.90
39665;DHT22;26679;50.872;4.332;2023-03-25T19:03:34;11.60;99.90
39665;DHT22;26679;50.872;4.332;2023-03-25T19:06:07;11.60;99.90
39665;DHT22;26679;50.872;4.332;2023-03-25T19:08:33;11.60;99.90
39665;DHT22;26679;50.872;4.332;2023-03-25T19:11:01;11.60;99.90
39665;DHT22;26679;50.872;4.332;2023-03-25T19:13:27;11.40;99.90
39665;DHT22;26679;50.872;4.332;2023-03-25T19:15:56;11.50;99.90
39665;DHT22;26679;50.872;4.332;2023-03-25T19:18:24;11.50;99.90
39665;DHT22;26679;50.872;4.332;2023-03-25T19:20:53;11.40;99.90
39665;DHT22;26679;50.872;4.332;2023-03-25T19:23:33;11.40;99.90
39665;DHT22;26679;50.872;4.332;2023-03-25T19:25:59;11.40;99.90
39665;DHT22;26679;50.872;4.332;2023-03-25T19:28:25;11.30;99.90
39665;DHT22;26679;50.872;4.332;2023-03-25T19:38:43;11.30;99.90
39665;DHT22;26679;50.872;4.332;2023-03-25T19:41:10;11.20;99.90
39665;DHT22;26679;50.872;4.332;2023-03-25T19:43:36;11.20;99.90
39665;DHT22;26679;50.872;4.332;2023-03-25T19:48:29;11.10;99.90
39665;DHT22;26679;50.872;4.332;2023-03-25T19:50:55;11.10;99.90
39665;DHT22;26679;50.872;4.332;2023-03-25T19:53:21;11.20;99.90
39665;DHT22;26679;50.872;4.332;2023-03-25T19:55:47;11.10;99.90
39665;DHT22;26679;50.872;4.332;2023-03-25T19:58:12;11.10;99.90
39665;DHT22;26679;50.872;4.332;2023-03-25T20:00:38;11.10;99.90
39665;DHT22;26679;50.872;4.332;2023-03-25T20:05:34;11.00;99.90
39665;DHT22;26679;50.872;4.332;2023-03-25T20:08:00;11.00;99.90
39665;DHT22;26679;50.872;4.332;2023-03-25T20:10:27;10.40;99.90
39665;DHT22;26679;50.872;4.332;2023-03-25T20:15:28;10.90;99.90
39665;DHT22;26679;50.872;4.332;2023-03-25T20:17:54;10.90;99.90
39665;DHT22;26679;50.872;4.332;2023-03-25T20:20:19;11.00;99.90
39665;DHT22;26679;50.872;4.332;2023-03-25T20:22:45;10.90;99.90
39665;DHT22;26679;50.872;4.332;2023-03-25T20:25:12;11.00;99.90
39665;DHT22;26679;50.872;4.332;2023-03-25T20:27:42;10.80;99.90
39665;DHT22;26679;50.872;4.332;2023-03-25T20:30:08;10.80;99.90
39665;DHT22;26679;50.872;4.332;2023-03-25T20:32:34;10.80;99.90
39665;DHT22;26679;50.872;4.332;2023-03-25T20:35:00;10.80;99.90
39665;DHT22;26679;50.872;4.332;2023-03-25T20:37:27;10.70;99.90
39665;DHT22;26679;50.872;4.332;2023-03-25T20:39:52;10.70;99.90
39665;DHT22;26679;50.872;4.332;2023-03-25T20:42:18;10.80;99.90
39665;DHT22;26679;50.872;4.332;2023-03-25T20:44:44;10.80;99.90
39665;DHT22;26679;50.872;4.332;2023-03-25T20:47:10;10.70;99.90
39665;DHT22;26679;50.872;4.332;2023-03-25T20:49:36;10.90;99.90
39665;DHT22;26679;50.872;4.332;2023-03-25T20:52:02;10.60;99.90
39665;DHT22;26679;50.872;4.332;2023-03-25T20:54:28;10.60;99.90
39665;DHT22;26679;50.872;4.332;2023-03-25T20:56:53;10.50;99.90
39665;DHT22;26679;50.872;4.332;2023-03-25T20:59:19;10.50;99.90
39665;DHT22;26679;50.872;4.332;2023-03-25T21:01:45;10.40;99.90
39665;DHT22;26679;50.872;4.332;2023-03-25T21:04:17;10.50;99.90
39665;DHT22;26679;50.872;4.332;2023-03-25T21:19:34;10.80;99.90
39665;DHT22;26679;50.872;4.332;2023-03-25T21:22:00;10.70;99.90
39665;DHT22;26679;50.872;4.332;2023-03-25T22:36:51;10.30;99.90
39665;DHT22;26679;50.872;4.332;2023-03-25T22:47:01;10.30;99.90
39665;DHT22;26679;50.872;4.332;2023-03-25T22:49:27;10.10;99.90
39665;DHT22;26679;50.872;4.332;2023-03-25T22:51:53;10.20;99.90
39665;DHT22;26679;50.872;4.332;2023-03-25T22:54:19;10.20;99.90
39665;DHT22;26679;50.872;4.332;2023-03-25T22:56:45;10.30;99.90
39665;DHT22;26679;50.872;4.332;2023-03-25T23:01:44;10.20;99.90
39665;DHT22;26679;50.872;4.332;2023-03-25T23:04:10;10.20;99.90
39665;DHT22;26679;50.872;4.332;2023-03-25T23:06:35;10.20;99.90
39665;DHT22;26679;50.872;4.332;2023-03-25T23:09:02;10.30;99.90
39665;DHT22;26679;50.872;4.332;2023-03-25T23:11:28;10.30;99.90
39665;DHT22;26679;50.872;4.332;2023-03-25T23:13:55;10.40;99.90